首页
METAR-TAF:

METAR-TAF

机场 :

郑州新郑国际机场

郑州, 中华人民共和国

纬度: 34-43N, 经度: 113-39E, 海拔: 111米

当前天气观测

该预报发布于29分钟前的02:00 UTC
风速14节,风向北转东北,有时为23节阵风
温度 24°C
湿度 94%
气压 1001 hPa
能見度: 7000
散云层高于500英尺
阴天层高于3000英尺
小雨

METAR: ZHCC 190200Z 02007G12MPS 7000 -RA SCT005 OVC030 24/23 Q1001 NOSIG

时间: 10:29 (02:29 UTC)

预报

该预报发布于7小时和21分钟前的19:08 UTC
预报有效从19日的 00点(UTC)到 19日的 24点(UTC)
风速12节,风向
能見度: 4000
多云层高于1000英尺
阴天层高于3000英尺
小雨

TAF: ZHCC 181908Z 1900/1924 01006MPS 4000 -RA BKN010 OVC030 TX26/1907Z TN22/1922Z

超过4000个机场的气象观测和天气预报(METAR&TAF报告)。

可查询的气象台以黄色和红色小点在地图上表示。

将鼠标移到小点上方,可查看气象台名称。

然后点击查看天气观测和预报。

如需切换地图:点击带黑十字的绿色按钮放大地图;点击带横线的绿色按钮缩小地图;或者点击绿色箭头查看邻近地区的地图。


METAR-TAF: